sensor_id;sensor_type;location;lat;lon;timestamp;temperature;humidity
11656;DHT22;5884;43.618;1.438;2022-12-16T05:46:41;10.30;99.90
11656;DHT22;5884;43.618;1.438;2022-12-16T05:49:26;10.40;99.90
11656;DHT22;5884;43.618;1.438;2022-12-16T05:52:10;10.40;99.90
11656;DHT22;5884;43.618;1.438;2022-12-16T05:54:54;10.40;99.90
11656;DHT22;5884;43.618;1.438;2022-12-16T05:57:39;10.40;99.90
11656;DHT22;5884;43.618;1.438;2022-12-16T06:00:23;10.30;99.90
11656;DHT22;5884;43.618;1.438;2022-12-16T06:03:09;10.30;99.90
11656;DHT22;5884;43.618;1.438;2022-12-16T06:05:54;10.30;99.90
11656;DHT22;5884;43.618;1.438;2022-12-16T06:08:38;10.30;99.90
11656;DHT22;5884;43.618;1.438;2022-12-16T06:11:23;10.30;99.90
11656;DHT22;5884;43.618;1.438;2022-12-16T06:14:07;10.30;99.90
11656;DHT22;5884;43.618;1.438;2022-12-16T06:16:52;10.30;99.90
11656;DHT22;5884;43.618;1.438;2022-12-16T06:19:37;10.30;99.90
11656;DHT22;5884;43.618;1.438;2022-12-16T06:22:22;10.30;99.90
11656;DHT22;5884;43.618;1.438;2022-12-16T06:25:07;10.30;99.90
11656;DHT22;5884;43.618;1.438;2022-12-16T06:27:52;10.30;99.90
11656;DHT22;5884;43.618;1.438;2022-12-16T06:30:37;10.20;99.90
11656;DHT22;5884;43.618;1.438;2022-12-16T06:33:21;10.20;99.90
11656;DHT22;5884;43.618;1.438;2022-12-16T06:36:08;10.20;99.90
11656;DHT22;5884;43.618;1.438;2022-12-16T06:38:53;10.20;99.90
11656;DHT22;5884;43.618;1.438;2022-12-16T06:41:37;10.20;99.90
11656;DHT22;5884;43.618;1.438;2022-12-16T06:44:22;10.20;99.90
11656;DHT22;5884;43.618;1.438;2022-12-16T06:47:07;10.20;99.90
11656;DHT22;5884;43.618;1.438;2022-12-16T06:49:52;10.20;99.90
11656;DHT22;5884;43.618;1.438;2022-12-16T06:52:40;10.20;99.90
11656;DHT22;5884;43.618;1.438;2022-12-16T06:55:26;10.20;99.90
11656;DHT22;5884;43.618;1.438;2022-12-16T06:58:10;10.20;99.90
11656;DHT22;5884;43.618;1.438;2022-12-16T07:00:55;10.20;99.90
11656;DHT22;5884;43.618;1.438;2022-12-16T07:03:40;10.20;99.90
11656;DHT22;5884;43.618;1.438;2022-12-16T07:06:25;10.10;99.90
11656;DHT22;5884;43.618;1.438;2022-12-16T07:09:11;10.00;99.90
11656;DHT22;5884;43.618;1.438;2022-12-16T07:11:56;10.00;99.90
11656;DHT22;5884;43.618;1.438;2022-12-16T07:14:37;10.00;99.90
11656;DHT22;5884;43.618;1.438;2022-12-16T07:17:21;9.90;99.90
11656;DHT22;5884;43.618;1.438;2022-12-16T07:20:07;9.90;99.90
11656;DHT22;5884;43.618;1.438;2022-12-16T07:22:52;9.90;99.90
11656;DHT22;5884;43.618;1.438;2022-12-16T07:25:39;9.90;99.90
11656;DHT22;5884;43.618;1.438;2022-12-16T07:28:24;9.90;99.90
11656;DHT22;5884;43.618;1.438;2022-12-16T07:31:08;9.90;99.90
11656;DHT22;5884;43.618;1.438;2022-12-16T07:33:53;10.00;99.90
11656;DHT22;5884;43.618;1.438;2022-12-16T07:36:37;10.00;99.90
11656;DHT22;5884;43.618;1.438;2022-12-16T07:39:22;10.10;99.90
11656;DHT22;5884;43.618;1.438;2022-12-16T07:42:08;10.10;99.90
11656;DHT22;5884;43.618;1.438;2022-12-16T07:44:53;10.20;99.90
11656;DHT22;5884;43.618;1.438;2022-12-16T07:47:38;10.20;99.90
11656;DHT22;5884;43.618;1.438;2022-12-16T07:50:30;10.20;99.90
11656;DHT22;5884;43.618;1.438;2022-12-16T07:53:14;10.20;99.90
11656;DHT22;5884;43.618;1.438;2022-12-16T07:55:59;10.30;99.90
11656;DHT22;5884;43.618;1.438;2022-12-16T07:58:45;10.30;99.90
11656;DHT22;5884;43.618;1.438;2022-12-16T08:01:30;10.30;99.90
11656;DHT22;5884;43.618;1.438;2022-12-16T08:04:14;10.30;99.90
11656;DHT22;5884;43.618;1.438;2022-12-16T08:06:58;10.30;99.90
11656;DHT22;5884;43.618;1.438;2022-12-16T08:09:43;10.30;99.90
11656;DHT22;5884;43.618;1.438;2022-12-16T08:12:27;10.40;99.90
11656;DHT22;5884;43.618;1.438;2022-12-16T08:15:13;10.40;99.90
11656;DHT22;5884;43.618;1.438;2022-12-16T08:17:58;10.40;99.90
11656;DHT22;5884;43.618;1.438;2022-12-16T08:20:42;10.50;99.90
11656;DHT22;5884;43.618;1.438;2022-12-16T08:23:27;10.50;99.90
11656;DHT22;5884;43.618;1.438;2022-12-16T08:26:11;10.50;99.90
11656;DHT22;5884;43.618;1.438;2022-12-16T08:28:56;10.50;99.90
11656;DHT22;5884;43.618;1.438;2022-12-16T08:31:42;10.50;99.90
11656;DHT22;5884;43.618;1.438;2022-12-16T08:34:27;10.50;99.90
11656;DHT22;5884;43.618;1.438;2022-12-16T08:37:12;10.40;99.90
11656;DHT22;5884;43.618;1.438;2022-12-16T08:39:57;10.50;99.90
11656;DHT22;5884;43.618;1.438;2022-12-16T08:42:41;10.60;99.90
11656;DHT22;5884;43.618;1.438;2022-12-16T08:45:26;10.50;99.90
11656;DHT22;5884;43.618;1.438;2022-12-16T08:48:12;10.60;99.90
11656;DHT22;5884;43.618;1.438;2022-12-16T08:51:00;10.50;99.90
11656;DHT22;5884;43.618;1.438;2022-12-16T08:53:45;10.50;99.90
11656;DHT22;5884;43.618;1.438;2022-12-16T08:56:30;10.50;99.90
11656;DHT22;5884;43.618;1.438;2022-12-16T08:59:15;10.50;99.90
11656;DHT22;5884;43.618;1.438;2022-12-16T09:02:00;10.50;99.90
11656;DHT22;5884;43.618;1.438;2022-12-16T09:04:46;10.50;99.90
11656;DHT22;5884;43.618;1.438;2022-12-16T09:07:31;10.50;99.90
11656;DHT22;5884;43.618;1.438;2022-12-16T09:10:15;10.50;99.90
11656;DHT22;5884;43.618;1.438;2022-12-16T09:13:07;10.50;99.90
11656;DHT22;5884;43.618;1.438;2022-12-16T09:15:52;10.50;99.90
11656;DHT22;5884;43.618;1.438;2022-12-16T09:18:37;10.60;99.90
11656;DHT22;5884;43.618;1.438;2022-12-16T09:21:23;10.60;99.90
11656;DHT22;5884;43.618;1.438;2022-12-16T09:24:08;10.70;99.90
11656;DHT22;5884;43.618;1.438;2022-12-16T09:26:52;10.80;99.90
11656;DHT22;5884;43.618;1.438;2022-12-16T09:29:36;10.90;99.90
11656;DHT22;5884;43.618;1.438;2022-12-16T09:32:21;10.90;99.90
11656;DHT22;5884;43.618;1.438;2022-12-16T09:35:06;10.90;99.90
11656;DHT22;5884;43.618;1.438;2022-12-16T09:37:53;11.00;99.90
11656;DHT22;5884;43.618;1.438;2022-12-16T09:40:38;11.10;99.90
11656;DHT22;5884;43.618;1.438;2022-12-16T09:43:38;11.10;99.90
11656;DHT22;5884;43.618;1.438;2022-12-16T09:46:38;11.10;99.90
11656;DHT22;5884;43.618;1.438;2022-12-16T09:49:40;11.10;99.90
11656;DHT22;5884;43.618;1.438;2022-12-16T09:52:27;11.10;99.90
11656;DHT22;5884;43.618;1.438;2022-12-16T09:55:23;11.10;99.90
11656;DHT22;5884;43.618;1.438;2022-12-16T09:58:11;11.10;99.90
11656;DHT22;5884;43.618;1.438;2022-12-16T10:00:57;11.10;99.90
11656;DHT22;5884;43.618;1.438;2022-12-16T10:03:43;11.10;99.90
11656;DHT22;5884;43.618;1.438;2022-12-16T10:06:34;11.10;99.90
11656;DHT22;5884;43.618;1.438;2022-12-16T10:09:27;11.10;99.90
11656;DHT22;5884;43.618;1.438;2022-12-16T10:12:22;11.10;99.90
11656;DHT22;5884;43.618;1.438;2022-12-16T10:15:25;11.10;99.90
11656;DHT22;5884;43.618;1.438;2022-12-16T10:18:24;11.10;99.90
11656;DHT22;5884;43.618;1.438;2022-12-16T10:21:20;11.10;99.90
11656;DHT22;5884;43.618;1.438;2022-12-16T10:24:14;11.10;99.90
11656;DHT22;5884;43.618;1.438;2022-12-16T10:27:09;11.20;99.90
11656;DHT22;5884;43.618;1.438;2022-12-16T10:29:59;11.30;99.90
11656;DHT22;5884;43.618;1.438;2022-12-16T10:32:46;11.30;99.90
11656;DHT22;5884;43.618;1.438;2022-12-16T10:35:34;11.40;99.90
11656;DHT22;5884;43.618;1.438;2022-12-16T10:38:30;11.40;99.90
11656;DHT22;5884;43.618;1.438;2022-12-16T10:41:21;11.40;99.90
11656;DHT22;5884;43.618;1.438;2022-12-16T10:44:15;11.50;99.90
11656;DHT22;5884;43.618;1.438;2022-12-16T10:47:08;11.50;99.90
11656;DHT22;5884;43.618;1.438;2022-12-16T10:49:56;11.60;99.90
11656;DHT22;5884;43.618;1.438;2022-12-16T10:52:49;11.70;99.90
11656;DHT22;5884;43.618;1.438;2022-12-16T10:55:46;11.70;99.90
11656;DHT22;5884;43.618;1.438;2022-12-16T10:58:41;11.70;99.90
11656;DHT22;5884;43.618;1.438;2022-12-16T11:01:29;11.80;99.90
11656;DHT22;5884;43.618;1.438;2022-12-16T11:04:32;11.90;99.90
11656;DHT22;5884;43.618;1.438;2022-12-16T11:07:26;12.00;99.90
11656;DHT22;5884;43.618;1.438;2022-12-16T11:10:32;12.00;99.90
11656;DHT22;5884;43.618;1.438;2022-12-16T11:13:21;12.00;99.90
11656;DHT22;5884;43.618;1.438;2022-12-16T11:16:10;12.10;99.90
11656;DHT22;5884;43.618;1.438;2022-12-16T11:18:57;12.20;99.90
11656;DHT22;5884;43.618;1.438;2022-12-16T11:21:44;12.20;99.90
11656;DHT22;5884;43.618;1.438;2022-12-16T11:24:29;12.10;99.90
11656;DHT22;5884;43.618;1.438;2022-12-16T11:27:21;12.20;99.90
11656;DHT22;5884;43.618;1.438;2022-12-16T11:30:18;12.20;99.90
11656;DHT22;5884;43.618;1.438;2022-12-16T11:33:11;12.20;99.90
11656;DHT22;5884;43.618;1.438;2022-12-16T11:36:06;12.20;99.90
11656;DHT22;5884;43.618;1.438;2022-12-16T11:38:56;12.30;99.90
11656;DHT22;5884;43.618;1.438;2022-12-16T11:41:43;12.30;99.90
11656;DHT22;5884;43.618;1.438;2022-12-16T11:44:33;12.30;99.90
11656;DHT22;5884;43.618;1.438;2022-12-16T11:47:26;12.30;99.90
11656;DHT22;5884;43.618;1.438;2022-12-16T11:50:19;12.40;99.90
11656;DHT22;5884;43.618;1.438;2022-12-16T11:53:12;12.40;99.90
11656;DHT22;5884;43.618;1.438;2022-12-16T11:56:11;12.50;99.90
11656;DHT22;5884;43.618;1.438;2022-12-16T11:59:01;12.50;99.90
11656;DHT22;5884;43.618;1.438;2022-12-16T12:01:52;12.40;99.90
11656;DHT22;5884;43.618;1.438;2022-12-16T12:04:48;12.30;99.90
11656;DHT22;5884;43.618;1.438;2022-12-16T12:07:40;12.40;99.90
11656;DHT22;5884;43.618;1.438;2022-12-16T12:10:50;12.40;99.90
11656;DHT22;5884;43.618;1.438;2022-12-16T12:13:50;12.40;99.90
11656;DHT22;5884;43.618;1.438;2022-12-16T12:16:55;12.40;99.90
11656;DHT22;5884;43.618;1.438;2022-12-16T12:19:54;12.40;99.90
11656;DHT22;5884;43.618;1.438;2022-12-16T12:22:45;12.40;99.90
11656;DHT22;5884;43.618;1.438;2022-12-16T12:25:36;12.40;99.90
11656;DHT22;5884;43.618;1.438;2022-12-16T12:28:34;12.40;99.90
11656;DHT22;5884;43.618;1.438;2022-12-16T12:31:33;12.40;99.90
11656;DHT22;5884;43.618;1.438;2022-12-16T12:34:28;12.40;99.90
11656;DHT22;5884;43.618;1.438;2022-12-16T12:37:23;12.40;99.90
11656;DHT22;5884;43.618;1.438;2022-12-16T12:40:37;12.30;99.90
11656;DHT22;5884;43.618;1.438;2022-12-16T12:43:34;12.30;99.90
11656;DHT22;5884;43.618;1.438;2022-12-16T12:46:32;12.30;99.90
11656;DHT22;5884;43.618;1.438;2022-12-16T12:49:28;12.30;99.90
11656;DHT22;5884;43.618;1.438;2022-12-16T12:52:28;12.40;99.90
11656;DHT22;5884;43.618;1.438;2022-12-16T12:55:48;12.30;99.90
11656;DHT22;5884;43.618;1.438;2022-12-16T12:58:38;12.30;99.90
11656;DHT22;5884;43.618;1.438;2022-12-16T13:01:26;12.30;99.90
11656;DHT22;5884;43.618;1.438;2022-12-16T13:04:20;12.30;99.90
11656;DHT22;5884;43.618;1.438;2022-12-16T13:07:06;12.30;99.90
11656;DHT22;5884;43.618;1.438;2022-12-16T13:10:10;12.40;99.90
11656;DHT22;5884;43.618;1.438;2022-12-16T13:13:27;12.40;99.90
11656;DHT22;5884;43.618;1.438;2022-12-16T13:16:54;12.50;99.90
11656;DHT22;5884;43.618;1.438;2022-12-16T13:19:57;12.40;99.90
11656;DHT22;5884;43.618;1.438;2022-12-16T13:22:43;12.30;99.90
11656;DHT22;5884;43.618;1.438;2022-12-16T13:25:37;12.10;99.90
11656;DHT22;5884;43.618;1.438;2022-12-16T13:28:31;12.10;99.90
11656;DHT22;5884;43.618;1.438;2022-12-16T13:31:17;12.00;99.90
11656;DHT22;5884;43.618;1.438;2022-12-16T13:34:06;12.00;99.90
11656;DHT22;5884;43.618;1.438;2022-12-16T13:37:06;12.00;99.90
11656;DHT22;5884;43.618;1.438;2022-12-16T13:40:05;12.10;99.90
11656;DHT22;5884;43.618;1.438;2022-12-16T13:42:58;12.00;99.90
11656;DHT22;5884;43.618;1.438;2022-12-16T13:45:43;12.00;99.90
11656;DHT22;5884;43.618;1.438;2022-12-16T13:49:44;12.00;99.90
11656;DHT22;5884;43.618;1.438;2022-12-16T13:52:41;11.90;99.90
11656;DHT22;5884;43.618;1.438;2022-12-16T13:55:29;11.90;99.90
11656;DHT22;5884;43.618;1.438;2022-12-16T13:58:22;11.90;99.90
11656;DHT22;5884;43.618;1.438;2022-12-16T14:01:17;11.90;99.90
11656;DHT22;5884;43.618;1.438;2022-12-16T14:04:08;11.90;99.90
11656;DHT22;5884;43.618;1.438;2022-12-16T14:06:54;11.90;99.90
11656;DHT22;5884;43.618;1.438;2022-12-16T14:09:47;11.80;99.90
11656;DHT22;5884;43.618;1.438;2022-12-16T14:13:00;11.70;99.90
11656;DHT22;5884;43.618;1.438;2022-12-16T14:15:57;11.70;99.90
11656;DHT22;5884;43.618;1.438;2022-12-16T14:18:57;11.60;99.90
11656;DHT22;5884;43.618;1.438;2022-12-16T14:21:47;11.60;99.90
11656;DHT22;5884;43.618;1.438;2022-12-16T14:24:37;11.60;99.90
11656;DHT22;5884;43.618;1.438;2022-12-16T14:27:23;11.60;99.90
11656;DHT22;5884;43.618;1.438;2022-12-16T14:30:16;11.60;99.90
11656;DHT22;5884;43.618;1.438;2022-12-16T14:33:18;11.60;99.90
11656;DHT22;5884;43.618;1.438;2022-12-16T14:36:18;11.60;99.90
11656;DHT22;5884;43.618;1.438;2022-12-16T14:39:09;11.60;99.90
11656;DHT22;5884;43.618;1.438;2022-12-16T14:41:54;11.50;99.90
11656;DHT22;5884;43.618;1.438;2022-12-16T14:44:43;11.50;99.90
11656;DHT22;5884;43.618;1.438;2022-12-16T14:47:29;11.50;99.90
11656;DHT22;5884;43.618;1.438;2022-12-16T14:50:20;11.40;99.90
11656;DHT22;5884;43.618;1.438;2022-12-16T14:53:11;11.30;99.90
11656;DHT22;5884;43.618;1.438;2022-12-16T14:56:09;11.30;99.90
11656;DHT22;5884;43.618;1.438;2022-12-16T14:59:15;11.20;99.90
11656;DHT22;5884;43.618;1.438;2022-12-16T15:02:13;11.10;99.90
11656;DHT22;5884;43.618;1.438;2022-12-16T15:05:05;11.10;99.90
11656;DHT22;5884;43.618;1.438;2022-12-16T15:07:50;11.00;99.90
11656;DHT22;5884;43.618;1.438;2022-12-16T15:10:35;11.00;99.90
11656;DHT22;5884;43.618;1.438;2022-12-16T15:13:20;10.90;99.90
11656;DHT22;5884;43.618;1.438;2022-12-16T15:16:05;11.00;99.90
11656;DHT22;5884;43.618;1.438;2022-12-16T15:18:57;11.00;99.90
11656;DHT22;5884;43.618;1.438;2022-12-16T15:21:42;11.00;99.90
11656;DHT22;5884;43.618;1.438;2022-12-16T15:24:31;10.90;99.90
11656;DHT22;5884;43.618;1.438;2022-12-16T15:27:23;10.90;99.90
11656;DHT22;5884;43.618;1.438;2022-12-16T15:30:30;10.90;99.90
11656;DHT22;5884;43.618;1.438;2022-12-16T15:33:26;10.80;99.90
11656;DHT22;5884;43.618;1.438;2022-12-16T15:36:27;10.80;99.90
11656;DHT22;5884;43.618;1.438;2022-12-16T15:39:20;10.80;99.90
11656;DHT22;5884;43.618;1.438;2022-12-16T15:42:18;10.80;99.90
11656;DHT22;5884;43.618;1.438;2022-12-16T15:45:14;10.70;99.90
11656;DHT22;5884;43.618;1.438;2022-12-16T15:48:11;10.60;99.90
11656;DHT22;5884;43.618;1.438;2022-12-16T15:50:59;10.60;99.90
11656;DHT22;5884;43.618;1.438;2022-12-16T15:54:00;10.60;99.90
11656;DHT22;5884;43.618;1.438;2022-12-16T15:56:46;10.60;99.90
11656;DHT22;5884;43.618;1.438;2022-12-16T15:59:32;10.60;99.90
11656;DHT22;5884;43.618;1.438;2022-12-16T16:02:21;10.60;99.90
11656;DHT22;5884;43.618;1.438;2022-12-16T16:05:11;10.60;99.90
11656;DHT22;5884;43.618;1.438;2022-12-16T16:07:57;10.70;99.90
11656;DHT22;5884;43.618;1.438;2022-12-16T16:10:44;10.60;99.90
11656;DHT22;5884;43.618;1.438;2022-12-16T16:13:29;10.60;99.90
11656;DHT22;5884;43.618;1.438;2022-12-16T16:16:14;10.60;99.90
11656;DHT22;5884;43.618;1.438;2022-12-16T16:19:10;10.60;99.90
11656;DHT22;5884;43.618;1.438;2022-12-16T16:21:56;10.50;99.90
11656;DHT22;5884;43.618;1.438;2022-12-16T16:24:41;10.50;99.90
11656;DHT22;5884;43.618;1.438;2022-12-16T16:27:27;10.50;99.90
11656;DHT22;5884;43.618;1.438;2022-12-16T16:30:13;10.50;99.90
11656;DHT22;5884;43.618;1.438;2022-12-16T16:32:57;10.50;99.90
11656;DHT22;5884;43.618;1.438;2022-12-16T16:35:42;10.50;99.90
11656;DHT22;5884;43.618;1.438;2022-12-16T16:38:26;10.50;99.90
11656;DHT22;5884;43.618;1.438;2022-12-16T16:41:14;10.50;99.90
11656;DHT22;5884;43.618;1.438;2022-12-16T16:44:00;10.50;99.90
11656;DHT22;5884;43.618;1.438;2022-12-16T16:46:45;10.50;99.90
11656;DHT22;5884;43.618;1.438;2022-12-16T16:49:32;10.50;99.90
11656;DHT22;5884;43.618;1.438;2022-12-16T16:52:20;10.50;99.90
11656;DHT22;5884;43.618;1.438;2022-12-16T16:55:07;10.50;99.90
11656;DHT22;5884;43.618;1.438;2022-12-16T16:57:53;10.30;99.90
11656;DHT22;5884;43.618;1.438;2022-12-16T17:00:39;10.20;99.90
11656;DHT22;5884;43.618;1.438;2022-12-16T17:03:24;10.10;99.90
11656;DHT22;5884;43.618;1.438;2022-12-16T17:06:09;10.00;99.90
11656;DHT22;5884;43.618;1.438;2022-12-16T17:08:54;9.80;99.90
11656;DHT22;5884;43.618;1.438;2022-12-16T17:11:38;9.70;99.90
11656;DHT22;5884;43.618;1.438;2022-12-16T17:14:23;9.60;99.90
11656;DHT22;5884;43.618;1.438;2022-12-16T17:17:09;9.50;99.90
11656;DHT22;5884;43.618;1.438;2022-12-16T17:19:55;9.50;99.90
11656;DHT22;5884;43.618;1.438;2022-12-16T17:22:40;9.50;99.90
11656;DHT22;5884;43.618;1.438;2022-12-16T17:25:25;9.50;99.90
11656;DHT22;5884;43.618;1.438;2022-12-16T17:28:10;9.40;99.90
11656;DHT22;5884;43.618;1.438;2022-12-16T17:30:55;9.30;99.90
11656;DHT22;5884;43.618;1.438;2022-12-16T17:33:41;9.30;99.90
11656;DHT22;5884;43.618;1.438;2022-12-16T17:36:26;9.20;99.90
11656;DHT22;5884;43.618;1.438;2022-12-16T17:39:10;9.20;99.90
11656;DHT22;5884;43.618;1.438;2022-12-16T17:41:56;9.10;99.90
11656;DHT22;5884;43.618;1.438;2022-12-16T17:44:40;9.20;99.90
11656;DHT22;5884;43.618;1.438;2022-12-16T17:47:25;9.20;99.90
11656;DHT22;5884;43.618;1.438;2022-12-16T17:50:11;9.10;99.90
11656;DHT22;5884;43.618;1.438;2022-12-16T17:52:56;9.00;99.90
11656;DHT22;5884;43.618;1.438;2022-12-16T17:55:42;9.00;99.90
11656;DHT22;5884;43.618;1.438;2022-12-16T17:58:31;9.00;99.90
11656;DHT22;5884;43.618;1.438;2022-12-16T18:01:17;9.00;99.90
11656;DHT22;5884;43.618;1.438;2022-12-16T18:04:02;8.90;99.90
11656;DHT22;5884;43.618;1.438;2022-12-16T18:06:48;8.80;99.90
11656;DHT22;5884;43.618;1.438;2022-12-16T18:09:33;8.80;99.90
11656;DHT22;5884;43.618;1.438;2022-12-16T18:12:18;8.80;99.90
11656;DHT22;5884;43.618;1.438;2022-12-16T18:15:03;8.90;99.90
11656;DHT22;5884;43.618;1.438;2022-12-16T18:17:49;8.90;99.90
11656;DHT22;5884;43.618;1.438;2022-12-16T18:20:34;8.90;99.90
11656;DHT22;5884;43.618;1.438;2022-12-16T18:23:20;8.80;99.90
11656;DHT22;5884;43.618;1.438;2022-12-16T18:26:07;8.80;99.90
11656;DHT22;5884;43.618;1.438;2022-12-16T18:28:52;8.90;99.90
11656;DHT22;5884;43.618;1.438;2022-12-16T18:31:40;8.80;99.90
11656;DHT22;5884;43.618;1.438;2022-12-16T18:34:25;8.80;99.90
11656;DHT22;5884;43.618;1.438;2022-12-16T18:37:10;8.70;99.90
11656;DHT22;5884;43.618;1.438;2022-12-16T18:39:57;8.70;99.90
11656;DHT22;5884;43.618;1.438;2022-12-16T18:42:41;8.60;99.90
11656;DHT22;5884;43.618;1.438;2022-12-16T18:45:26;8.60;99.90
11656;DHT22;5884;43.618;1.438;2022-12-16T18:48:10;8.60;99.90
11656;DHT22;5884;43.618;1.438;2022-12-16T18:50:56;8.60;99.90
11656;DHT22;5884;43.618;1.438;2022-12-16T18:53:42;8.60;99.90
11656;DHT22;5884;43.618;1.438;2022-12-16T18:56:28;8.50;99.90
11656;DHT22;5884;43.618;1.438;2022-12-16T18:59:13;8.50;99.90
11656;DHT22;5884;43.618;1.438;2022-12-16T19:01:58;8.50;99.90
11656;DHT22;5884;43.618;1.438;2022-12-16T19:04:43;8.40;99.90
11656;DHT22;5884;43.618;1.438;2022-12-16T19:07:27;8.50;99.90
11656;DHT22;5884;43.618;1.438;2022-12-16T19:10:12;8.40;99.90
11656;DHT22;5884;43.618;1.438;2022-12-16T19:12:58;8.30;99.90
11656;DHT22;5884;43.618;1.438;2022-12-16T19:15:52;8.40;99.90
11656;DHT22;5884;43.618;1.438;2022-12-16T19:18:37;8.30;99.90
11656;DHT22;5884;43.618;1.438;2022-12-16T19:21:22;8.30;99.90
11656;DHT22;5884;43.618;1.438;2022-12-16T19:24:07;8.30;99.90
11656;DHT22;5884;43.618;1.438;2022-12-16T19:26:52;8.20;99.90
11656;DHT22;5884;43.618;1.438;2022-12-16T19:29:38;8.30;99.90
11656;DHT22;5884;43.618;1.438;2022-12-16T19:32:23;8.20;99.90
11656;DHT22;5884;43.618;1.438;2022-12-16T19:35:08;8.20;99.90
11656;DHT22;5884;43.618;1.438;2022-12-16T19:37:53;8.10;99.90
11656;DHT22;5884;43.618;1.438;2022-12-16T19:40:37;8.10;99.90
11656;DHT22;5884;43.618;1.438;2022-12-16T19:43:22;8.10;99.90
11656;DHT22;5884;43.618;1.438;2022-12-16T19:46:08;8.20;99.90
11656;DHT22;5884;43.618;1.438;2022-12-16T19:48:53;8.10;99.90
11656;DHT22;5884;43.618;1.438;2022-12-16T19:51:37;8.10;99.90
11656;DHT22;5884;43.618;1.438;2022-12-16T19:54:21;8.10;99.90
11656;DHT22;5884;43.618;1.438;2022-12-16T19:57:06;8.00;99.90
11656;DHT22;5884;43.618;1.438;2022-12-16T19:59:50;8.00;99.90
11656;DHT22;5884;43.618;1.438;2022-12-16T20:02:36;7.90;99.90
11656;DHT22;5884;43.618;1.438;2022-12-16T20:05:21;7.90;99.90
11656;DHT22;5884;43.618;1.438;2022-12-16T20:08:05;7.90;99.90
11656;DHT22;5884;43.618;1.438;2022-12-16T20:10:50;7.90;99.90
11656;DHT22;5884;43.618;1.438;2022-12-16T20:13:46;7.80;99.90
11656;DHT22;5884;43.618;1.438;2022-12-16T20:16:30;7.80;99.90
11656;DHT22;5884;43.618;1.438;2022-12-16T20:19:16;7.80;99.90
11656;DHT22;5884;43.618;1.438;2022-12-16T20:22:01;7.70;99.90
11656;DHT22;5884;43.618;1.438;2022-12-16T20:24:45;7.70;99.90
11656;DHT22;5884;43.618;1.438;2022-12-16T20:27:30;7.70;99.90
11656;DHT22;5884;43.618;1.438;2022-12-16T20:30:15;7.70;99.90
11656;DHT22;5884;43.618;1.438;2022-12-16T20:33:00;7.60;99.90
11656;DHT22;5884;43.618;1.438;2022-12-16T20:35:55;7.50;99.90
11656;DHT22;5884;43.618;1.438;2022-12-16T20:38:40;7.50;99.90
11656;DHT22;5884;43.618;1.438;2022-12-16T20:41:24;7.40;99.90
11656;DHT22;5884;43.618;1.438;2022-12-16T20:44:09;7.40;99.90
11656;DHT22;5884;43.618;1.438;2022-12-16T20:46:54;7.40;99.90
11656;DHT22;5884;43.618;1.438;2022-12-16T20:49:38;7.30;99.90
11656;DHT22;5884;43.618;1.438;2022-12-16T20:52:24;7.30;99.90
11656;DHT22;5884;43.618;1.438;2022-12-16T20:55:09;7.30;99.90
11656;DHT22;5884;43.618;1.438;2022-12-16T20:57:54;7.20;99.90
11656;DHT22;5884;43.618;1.438;2022-12-16T21:00:38;7.30;99.90
11656;DHT22;5884;43.618;1.438;2022-12-16T21:03:32;7.20;99.90
11656;DHT22;5884;43.618;1.438;2022-12-16T21:06:16;7.20;99.90
11656;DHT22;5884;43.618;1.438;2022-12-16T21:09:02;7.20;99.90
11656;DHT22;5884;43.618;1.438;2022-12-16T21:11:47;7.10;99.90
11656;DHT22;5884;43.618;1.438;2022-12-16T21:14:31;7.20;99.90
11656;DHT22;5884;43.618;1.438;2022-12-16T21:17:16;7.20;99.90
11656;DHT22;5884;43.618;1.438;2022-12-16T21:20:02;7.10;99.90
11656;DHT22;5884;43.618;1.438;2022-12-16T21:22:48;7.20;99.90
11656;DHT22;5884;43.618;1.438;2022-12-16T21:25:34;7.20;99.90
11656;DHT22;5884;43.618;1.438;2022-12-16T21:28:19;7.10;99.90
11656;DHT22;5884;43.618;1.438;2022-12-16T21:31:06;7.10;99.90
11656;DHT22;5884;43.618;1.438;2022-12-16T21:33:52;7.10;99.90
11656;DHT22;5884;43.618;1.438;2022-12-16T21:36:37;7.00;99.90
11656;DHT22;5884;43.618;1.438;2022-12-16T21:39:21;7.00;99.90
11656;DHT22;5884;43.618;1.438;2022-12-16T21:42:21;7.10;99.90
11656;DHT22;5884;43.618;1.438;2022-12-16T21:45:07;7.10;99.90
11656;DHT22;5884;43.618;1.438;2022-12-16T21:47:52;7.20;99.90
11656;DHT22;5884;43.618;1.438;2022-12-16T21:50:37;7.20;99.90
11656;DHT22;5884;43.618;1.438;2022-12-16T21:53:22;7.20;99.90
11656;DHT22;5884;43.618;1.438;2022-12-16T21:56:08;7.20;99.90
11656;DHT22;5884;43.618;1.438;2022-12-16T21:58:54;7.20;99.90
